sensor_id;sensor_type;location;lat;lon;timestamp;pressure;altitude;pressure_sealevel;temperature;humidity
59971;BME280;45825;45.434;9.116;2023-02-21T00:00:17;101085.28;;;9.43;96.13
59971;BME280;45825;45.434;9.116;2023-02-21T00:03:01;101077.69;;;9.35;96.97
59971;BME280;45825;45.434;9.116;2023-02-21T00:05:45;101075.91;;;9.36;97.06
59971;BME280;45825;45.434;9.116;2023-02-21T00:08:30;101076.59;;;9.41;96.26
59971;BME280;45825;45.434;9.116;2023-02-21T00:11:14;101067.84;;;9.41;97.53
59971;BME280;45825;45.434;9.116;2023-02-21T00:13:58;101072.34;;;9.37;96.81
59971;BME280;45825;45.434;9.116;2023-02-21T00:16:42;101066.44;;;9.32;97.46
59971;BME280;45825;45.434;9.116;2023-02-21T00:19:26;101066.09;;;9.17;97.88
59971;BME280;45825;45.434;9.116;2023-02-21T00:22:09;101051.69;;;9.04;99.87
59971;BME280;45825;45.434;9.116;2023-02-21T00:24:53;101070.78;;;9.09;99.77
59971;BME280;45825;45.434;9.116;2023-02-21T00:27:37;101062.94;;;9.07;100.00
59971;BME280;45825;45.434;9.116;2023-02-21T00:30:21;101057.97;;;9.00;100.00
59971;BME280;45825;45.434;9.116;2023-02-21T00:33:05;101060.59;;;9.00;100.00
59971;BME280;45825;45.434;9.116;2023-02-21T00:35:49;101046.84;;;8.93;100.00
59971;BME280;45825;45.434;9.116;2023-02-21T00:38:36;101061.47;;;9.00;100.00
59971;BME280;45825;45.434;9.116;2023-02-21T00:41:20;101049.63;;;8.88;100.00
59971;BME280;45825;45.434;9.116;2023-02-21T00:44:04;101051.34;;;8.89;100.00
59971;BME280;45825;45.434;9.116;2023-02-21T00:46:48;101049.75;;;8.85;100.00
59971;BME280;45825;45.434;9.116;2023-02-21T00:49:32;101049.13;;;8.78;100.00
59971;BME280;45825;45.434;9.116;2023-02-21T00:52:16;101047.34;;;8.79;100.00
59971;BME280;45825;45.434;9.116;2023-02-21T00:55:00;101043.69;;;8.83;100.00
59971;BME280;45825;45.434;9.116;2023-02-21T00:57:44;101047.63;;;8.95;100.00
59971;BME280;45825;45.434;9.116;2023-02-21T01:00:28;101042.94;;;9.05;100.00
59971;BME280;45825;45.434;9.116;2023-02-21T01:03:15;101045.09;;;9.17;100.00
59971;BME280;45825;45.434;9.116;2023-02-21T01:05:59;101043.44;;;9.15;100.00
59971;BME280;45825;45.434;9.116;2023-02-21T01:08:45;101041.44;;;9.21;100.00
59971;BME280;45825;45.434;9.116;2023-02-21T01:11:30;101031.88;;;9.19;100.00
59971;BME280;45825;45.434;9.116;2023-02-21T01:14:14;101035.31;;;9.21;100.00
59971;BME280;45825;45.434;9.116;2023-02-21T01:16:59;101036.31;;;9.18;100.00
59971;BME280;45825;45.434;9.116;2023-02-21T01:19:43;101036.31;;;9.18;100.00
59971;BME280;45825;45.434;9.116;2023-02-21T01:22:28;101033.50;;;9.23;100.00
59971;BME280;45825;45.434;9.116;2023-02-21T01:25:12;101029.44;;;9.14;100.00
59971;BME280;45825;45.434;9.116;2023-02-21T01:27:57;101028.34;;;8.96;100.00
59971;BME280;45825;45.434;9.116;2023-02-21T01:30:41;101021.34;;;8.97;100.00
59971;BME280;45825;45.434;9.116;2023-02-21T01:33:25;101018.56;;;9.01;100.00
59971;BME280;45825;45.434;9.116;2023-02-21T01:36:09;101015.97;;;9.00;100.00
59971;BME280;45825;45.434;9.116;2023-02-21T01:38:54;101016.13;;;8.95;100.00
59971;BME280;45825;45.434;9.116;2023-02-21T01:41:38;101016.97;;;8.72;100.00
59971;BME280;45825;45.434;9.116;2023-02-21T01:44:35;101020.34;;;8.75;100.00
59971;BME280;45825;45.434;9.116;2023-02-21T01:47:19;101011.66;;;8.73;100.00
59971;BME280;45825;45.434;9.116;2023-02-21T01:50:27;101008.56;;;8.62;100.00
59971;BME280;45825;45.434;9.116;2023-02-21T01:53:19;101010.25;;;8.64;100.00
59971;BME280;45825;45.434;9.116;2023-02-21T01:56:04;101002.53;;;8.60;100.00
59971;BME280;45825;45.434;9.116;2023-02-21T01:58:52;101005.94;;;8.62;100.00
59971;BME280;45825;45.434;9.116;2023-02-21T02:02:00;101006.69;;;8.65;100.00
59971;BME280;45825;45.434;9.116;2023-02-21T02:04:47;101012.00;;;8.64;100.00
59971;BME280;45825;45.434;9.116;2023-02-21T02:07:33;101006.88;;;8.61;100.00
59971;BME280;45825;45.434;9.116;2023-02-21T02:10:17;101012.59;;;8.45;100.00
59971;BME280;45825;45.434;9.116;2023-02-21T02:13:45;101009.44;;;8.35;100.00
59971;BME280;45825;45.434;9.116;2023-02-21T02:19:11;101003.25;;;8.38;100.00
59971;BME280;45825;45.434;9.116;2023-02-21T02:24:43;100997.28;;;8.33;100.00
59971;BME280;45825;45.434;9.116;2023-02-21T02:27:36;100999.06;;;8.32;100.00
59971;BME280;45825;45.434;9.116;2023-02-21T02:30:30;100999.91;;;8.33;100.00
59971;BME280;45825;45.434;9.116;2023-02-21T02:33:36;101000.78;;;8.33;100.00
59971;BME280;45825;45.434;9.116;2023-02-21T02:38:51;100987.72;;;8.32;100.00
59971;BME280;45825;45.434;9.116;2023-02-21T02:44:00;100993.34;;;8.21;100.00
59971;BME280;45825;45.434;9.116;2023-02-21T02:46:30;100994.34;;;8.17;100.00
59971;BME280;45825;45.434;9.116;2023-02-21T02:49:05;100993.22;;;8.24;100.00
59971;BME280;45825;45.434;9.116;2023-02-21T02:51:33;100991.63;;;8.20;100.00
59971;BME280;45825;45.434;9.116;2023-02-21T02:53:59;100989.66;;;8.00;100.00
59971;BME280;45825;45.434;9.116;2023-02-21T02:56:24;100984.00;;;8.12;100.00
59971;BME280;45825;45.434;9.116;2023-02-21T02:58:58;100990.06;;;8.14;100.00
59971;BME280;45825;45.434;9.116;2023-02-21T03:04:53;100989.31;;;8.10;100.00
59971;BME280;45825;45.434;9.116;2023-02-21T03:07:43;100988.25;;;7.89;100.00
59971;BME280;45825;45.434;9.116;2023-02-21T03:10:36;100983.06;;;7.88;100.00
59971;BME280;45825;45.434;9.116;2023-02-21T03:13:34;100976.13;;;7.87;100.00
59971;BME280;45825;45.434;9.116;2023-02-21T03:19:07;100970.97;;;7.83;100.00
59971;BME280;45825;45.434;9.116;2023-02-21T03:21:48;100972.41;;;7.65;100.00
59971;BME280;45825;45.434;9.116;2023-02-21T03:24:16;100976.84;;;7.63;100.00
59971;BME280;45825;45.434;9.116;2023-02-21T03:26:46;100968.88;;;7.66;100.00
59971;BME280;45825;45.434;9.116;2023-02-21T03:29:13;100971.72;;;7.87;100.00
59971;BME280;45825;45.434;9.116;2023-02-21T03:31:46;100973.28;;;7.93;100.00
59971;BME280;45825;45.434;9.116;2023-02-21T03:34:13;100966.13;;;7.98;100.00
59971;BME280;45825;45.434;9.116;2023-02-21T03:36:39;100965.88;;;8.06;100.00
59971;BME280;45825;45.434;9.116;2023-02-21T03:39:05;100962.53;;;8.01;100.00
59971;BME280;45825;45.434;9.116;2023-02-21T03:41:31;100958.00;;;8.06;100.00
59971;BME280;45825;45.434;9.116;2023-02-21T03:43:56;100956.00;;;8.14;100.00
59971;BME280;45825;45.434;9.116;2023-02-21T03:46:21;100958.47;;;8.19;100.00
59971;BME280;45825;45.434;9.116;2023-02-21T03:48:48;100955.91;;;8.16;100.00
59971;BME280;45825;45.434;9.116;2023-02-21T03:51:13;100954.00;;;8.21;100.00
59971;BME280;45825;45.434;9.116;2023-02-21T03:53:40;100950.53;;;8.20;100.00
59971;BME280;45825;45.434;9.116;2023-02-21T03:56:05;100952.22;;;8.21;100.00
59971;BME280;45825;45.434;9.116;2023-02-21T03:58:31;100956.03;;;8.38;100.00
59971;BME280;45825;45.434;9.116;2023-02-21T04:00:56;100957.75;;;8.39;99.86
59971;BME280;45825;45.434;9.116;2023-02-21T04:03:22;100959.63;;;8.35;100.00
59971;BME280;45825;45.434;9.116;2023-02-21T04:05:48;100953.84;;;8.25;100.00
59971;BME280;45825;45.434;9.116;2023-02-21T04:08:14;100954.53;;;8.31;100.00
59971;BME280;45825;45.434;9.116;2023-02-21T04:10:39;100948.06;;;8.41;100.00
59971;BME280;45825;45.434;9.116;2023-02-21T04:13:05;100951.56;;;8.42;100.00
59971;BME280;45825;45.434;9.116;2023-02-21T04:15:32;100956.72;;;8.43;99.37
59971;BME280;45825;45.434;9.116;2023-02-21T04:17:58;100943.22;;;8.30;100.00
59971;BME280;45825;45.434;9.116;2023-02-21T04:20:23;100940.44;;;8.35;99.58
59971;BME280;45825;45.434;9.116;2023-02-21T04:22:48;100941.31;;;8.34;99.05
59971;BME280;45825;45.434;9.116;2023-02-21T04:25:14;100938.91;;;8.28;99.05
59971;BME280;45825;45.434;9.116;2023-02-21T04:27:39;100939.38;;;8.14;100.00
59971;BME280;45825;45.434;9.116;2023-02-21T04:30:05;100943.19;;;8.05;100.00
59971;BME280;45825;45.434;9.116;2023-02-21T04:32:30;100936.44;;;7.97;100.00
59971;BME280;45825;45.434;9.116;2023-02-21T04:34:55;100940.66;;;8.02;100.00
59971;BME280;45825;45.434;9.116;2023-02-21T04:37:21;100940.72;;;8.00;100.00
59971;BME280;45825;45.434;9.116;2023-02-21T04:39:46;100932.72;;;8.05;100.00
59971;BME280;45825;45.434;9.116;2023-02-21T04:42:11;100930.78;;;8.10;100.00
59971;BME280;45825;45.434;9.116;2023-02-21T04:44:37;100936.78;;;8.14;99.52
59971;BME280;45825;45.434;9.116;2023-02-21T04:47:02;100929.19;;;8.06;100.00
59971;BME280;45825;45.434;9.116;2023-02-21T04:49:28;100933.63;;;8.04;100.00
59971;BME280;45825;45.434;9.116;2023-02-21T04:51:53;100936.94;;;8.09;100.00
59971;BME280;45825;45.434;9.116;2023-02-21T04:54:19;100937.16;;;8.03;100.00
59971;BME280;45825;45.434;9.116;2023-02-21T04:56:44;100939.22;;;7.93;100.00
59971;BME280;45825;45.434;9.116;2023-02-21T04:59:10;100935.97;;;7.85;100.00
59971;BME280;45825;45.434;9.116;2023-02-21T05:01:35;100938.59;;;7.85;100.00
59971;BME280;45825;45.434;9.116;2023-02-21T05:04:00;100938.03;;;7.76;100.00
59971;BME280;45825;45.434;9.116;2023-02-21T05:06:28;100932.41;;;7.87;100.00
59971;BME280;45825;45.434;9.116;2023-02-21T05:08:53;100929.63;;;7.92;99.35
59971;BME280;45825;45.434;9.116;2023-02-21T05:11:20;100921.41;;;7.77;96.90
59971;BME280;45825;45.434;9.116;2023-02-21T05:13:46;100927.84;;;7.67;93.44
59971;BME280;45825;45.434;9.116;2023-02-21T05:16:12;100915.97;;;7.28;90.63
59971;BME280;45825;45.434;9.116;2023-02-21T05:18:40;100926.16;;;7.37;88.18
59971;BME280;45825;45.434;9.116;2023-02-21T05:21:06;100923.06;;;7.24;86.58
59971;BME280;45825;45.434;9.116;2023-02-21T05:23:32;100921.22;;;6.99;86.51
59971;BME280;45825;45.434;9.116;2023-02-21T05:26:04;100916.22;;;6.60;86.68
59971;BME280;45825;45.434;9.116;2023-02-21T05:28:30;100918.31;;;6.47;87.08
59971;BME280;45825;45.434;9.116;2023-02-21T05:30:56;100913.66;;;6.59;86.12
59971;BME280;45825;45.434;9.116;2023-02-21T05:33:22;100902.25;;;6.61;85.08
59971;BME280;45825;45.434;9.116;2023-02-21T05:35:47;100920.72;;;6.55;85.06
59971;BME280;45825;45.434;9.116;2023-02-21T05:38:15;100919.53;;;6.00;86.14
59971;BME280;45825;45.434;9.116;2023-02-21T05:40:40;100909.19;;;6.31;84.95
59971;BME280;45825;45.434;9.116;2023-02-21T05:43:06;100915.16;;;6.36;83.55
59971;BME280;45825;45.434;9.116;2023-02-21T05:45:31;100914.44;;;6.31;83.83
59971;BME280;45825;45.434;9.116;2023-02-21T05:47:56;100911.06;;;6.25;82.85
59971;BME280;45825;45.434;9.116;2023-02-21T05:50:25;100921.06;;;6.09;83.46
59971;BME280;45825;45.434;9.116;2023-02-21T05:52:51;100916.06;;;6.01;83.37
59971;BME280;45825;45.434;9.116;2023-02-21T05:55:16;100923.88;;;6.03;84.00
59971;BME280;45825;45.434;9.116;2023-02-21T05:57:42;100925.81;;;5.93;84.33
59971;BME280;45825;45.434;9.116;2023-02-21T06:00:20;100921.53;;;5.91;83.40
59971;BME280;45825;45.434;9.116;2023-02-21T06:02:45;100921.38;;;5.97;83.47
59971;BME280;45825;45.434;9.116;2023-02-21T06:05:11;100924.94;;;5.18;86.88
59971;BME280;45825;45.434;9.116;2023-02-21T06:07:37;100920.25;;;5.35;87.88
59971;BME280;45825;45.434;9.116;2023-02-21T06:10:03;100923.31;;;5.54;86.37
59971;BME280;45825;45.434;9.116;2023-02-21T06:12:29;100914.34;;;5.64;86.45
59971;BME280;45825;45.434;9.116;2023-02-21T06:14:55;100924.59;;;5.72;85.29
59971;BME280;45825;45.434;9.116;2023-02-21T06:17:20;100931.88;;;5.21;87.77
59971;BME280;45825;45.434;9.116;2023-02-21T06:19:45;100931.66;;;5.30;88.04
59971;BME280;45825;45.434;9.116;2023-02-21T06:22:11;100928.41;;;5.58;86.92
59971;BME280;45825;45.434;9.116;2023-02-21T06:24:36;100927.22;;;4.95;90.67
59971;BME280;45825;45.434;9.116;2023-02-21T06:27:03;100927.91;;;5.03;92.31
59971;BME280;45825;45.434;9.116;2023-02-21T06:29:29;100920.91;;;5.44;89.60
59971;BME280;45825;45.434;9.116;2023-02-21T06:31:57;100918.09;;;5.54;89.25
59971;BME280;45825;45.434;9.116;2023-02-21T06:34:23;100918.50;;;5.71;88.34
59971;BME280;45825;45.434;9.116;2023-02-21T06:36:55;100920.91;;;5.79;87.53
59971;BME280;45825;45.434;9.116;2023-02-21T06:39:21;100910.56;;;5.76;87.65
59971;BME280;45825;45.434;9.116;2023-02-21T06:41:48;100927.13;;;5.75;88.34
59971;BME280;45825;45.434;9.116;2023-02-21T06:44:14;100946.38;;;4.94;90.29
59971;BME280;45825;45.434;9.116;2023-02-21T06:46:41;100933.22;;;4.98;92.64
59971;BME280;45825;45.434;9.116;2023-02-21T06:49:06;100935.97;;;5.31;91.03
59971;BME280;45825;45.434;9.116;2023-02-21T06:51:35;100928.56;;;5.51;89.90
59971;BME280;45825;45.434;9.116;2023-02-21T06:54:02;100927.63;;;5.55;89.23
59971;BME280;45825;45.434;9.116;2023-02-21T06:56:27;100936.00;;;5.68;89.27
59971;BME280;45825;45.434;9.116;2023-02-21T06:58:53;100938.09;;;5.14;92.12
59971;BME280;45825;45.434;9.116;2023-02-21T07:01:18;100943.13;;;5.23;94.13
59971;BME280;45825;45.434;9.116;2023-02-21T07:03:45;100936.84;;;5.70;91.77
59971;BME280;45825;45.434;9.116;2023-02-21T07:06:11;100940.63;;;5.93;90.64
59971;BME280;45825;45.434;9.116;2023-02-21T07:08:36;100944.69;;;6.06;89.27
59971;BME280;45825;45.434;9.116;2023-02-21T07:11:02;100943.81;;;6.06;89.27
59971;BME280;45825;45.434;9.116;2023-02-21T07:13:27;100942.44;;;6.25;88.60
59971;BME280;45825;45.434;9.116;2023-02-21T07:15:53;100944.22;;;6.25;88.19
59971;BME280;45825;45.434;9.116;2023-02-21T07:18:18;100941.91;;;6.12;88.36
59971;BME280;45825;45.434;9.116;2023-02-21T07:20:43;100948.97;;;6.09;89.43
59971;BME280;45825;45.434;9.116;2023-02-21T07:23:09;100953.88;;;6.21;89.58
59971;BME280;45825;45.434;9.116;2023-02-21T07:25:34;100947.00;;;6.17;90.17
59971;BME280;45825;45.434;9.116;2023-02-21T07:28:00;100963.13;;;6.33;90.00
59971;BME280;45825;45.434;9.116;2023-02-21T07:30:26;100955.09;;;6.41;89.58
59971;BME280;45825;45.434;9.116;2023-02-21T07:32:51;100965.84;;;6.30;90.26
59971;BME280;45825;45.434;9.116;2023-02-21T07:35:16;100959.09;;;6.21;91.74
59971;BME280;45825;45.434;9.116;2023-02-21T07:37:42;100963.47;;;6.21;91.98
59971;BME280;45825;45.434;9.116;2023-02-21T07:40:08;100967.84;;;6.20;92.65
59971;BME280;45825;45.434;9.116;2023-02-21T07:42:34;100959.25;;;6.15;93.54
59971;BME280;45825;45.434;9.116;2023-02-21T07:44:59;100964.44;;;6.17;94.25
59971;BME280;45825;45.434;9.116;2023-02-21T07:47:26;100963.09;;;6.35;93.20
59971;BME280;45825;45.434;9.116;2023-02-21T07:49:52;100965.84;;;6.30;93.91
59971;BME280;45825;45.434;9.116;2023-02-21T07:52:18;100969.22;;;6.34;94.02
59971;BME280;45825;45.434;9.116;2023-02-21T07:54:44;100952.44;;;6.42;93.81
59971;BME280;45825;45.434;9.116;2023-02-21T07:57:10;100964.56;;;6.45;93.33
59971;BME280;45825;45.434;9.116;2023-02-21T07:59:35;100948.84;;;6.47;94.17
59971;BME280;45825;45.434;9.116;2023-02-21T08:02:01;100959.50;;;6.72;92.81
59971;BME280;45825;45.434;9.116;2023-02-21T08:04:26;100959.03;;;6.88;92.04
59971;BME280;45825;45.434;9.116;2023-02-21T08:06:58;100967.91;;;6.83;91.57
59971;BME280;45825;45.434;9.116;2023-02-21T08:09:23;100963.28;;;6.62;92.43
59971;BME280;45825;45.434;9.116;2023-02-21T08:11:48;100957.00;;;6.67;92.36
59971;BME280;45825;45.434;9.116;2023-02-21T08:14:13;100961.38;;;6.67;92.82
59971;BME280;45825;45.434;9.116;2023-02-21T08:16:39;100963.59;;;6.81;92.98
59971;BME280;45825;45.434;9.116;2023-02-21T08:19:04;100955.44;;;6.60;94.66
59971;BME280;45825;45.434;9.116;2023-02-21T08:21:29;100959.06;;;6.86;94.04
59971;BME280;45825;45.434;9.116;2023-02-21T08:23:55;100961.84;;;7.11;92.43
59971;BME280;45825;45.434;9.116;2023-02-21T08:26:21;100955.28;;;7.26;91.48
59971;BME280;45825;45.434;9.116;2023-02-21T08:28:46;100950.09;;;7.25;91.68
59971;BME280;45825;45.434;9.116;2023-02-21T08:31:12;100951.34;;;7.41;91.20
59971;BME280;45825;45.434;9.116;2023-02-21T08:33:38;100950.91;;;7.55;90.39
59971;BME280;45825;45.434;9.116;2023-02-21T08:36:03;100953.16;;;7.39;90.45
59971;BME280;45825;45.434;9.116;2023-02-21T08:38:29;100950.25;;;7.49;90.94
59971;BME280;45825;45.434;9.116;2023-02-21T08:40:54;100953.38;;;7.60;90.47
59971;BME280;45825;45.434;9.116;2023-02-21T08:43:20;100948.88;;;7.64;91.17
59971;BME280;45825;45.434;9.116;2023-02-21T08:45:45;100955.41;;;7.50;92.25
59971;BME280;45825;45.434;9.116;2023-02-21T08:48:10;100962.19;;;7.29;93.93
59971;BME280;45825;45.434;9.116;2023-02-21T08:50:36;100957.91;;;7.26;95.18
59971;BME280;45825;45.434;9.116;2023-02-21T08:53:02;100957.59;;;7.37;94.86
59971;BME280;45825;45.434;9.116;2023-02-21T08:55:27;100954.13;;;7.35;96.08
59971;BME280;45825;45.434;9.116;2023-02-21T08:57:53;100956.81;;;7.34;96.36
59971;BME280;45825;45.434;9.116;2023-02-21T09:00:20;100958.28;;;7.43;96.42
59971;BME280;45825;45.434;9.116;2023-02-21T09:02:48;100944.31;;;7.71;95.72
59971;BME280;45825;45.434;9.116;2023-02-21T09:05:17;100947.97;;;7.92;95.06
59971;BME280;45825;45.434;9.116;2023-02-21T09:07:46;100947.88;;;7.95;96.53
59971;BME280;45825;45.434;9.116;2023-02-21T09:10:12;100943.03;;;8.35;93.47
59971;BME280;45825;45.434;9.116;2023-02-21T09:12:37;100946.03;;;8.49;92.12
59971;BME280;45825;45.434;9.116;2023-02-21T09:15:03;100945.78;;;8.81;90.36
59971;BME280;45825;45.434;9.116;2023-02-21T09:17:29;100945.78;;;8.81;90.94
59971;BME280;45825;45.434;9.116;2023-02-21T09:20:01;100941.16;;;9.12;89.75
59971;BME280;45825;45.434;9.116;2023-02-21T09:22:29;100940.84;;;9.19;88.52
59971;BME280;45825;45.434;9.116;2023-02-21T09:24:56;100936.94;;;9.52;87.29
59971;BME280;45825;45.434;9.116;2023-02-21T09:27:21;100936.22;;;9.48;87.04
59971;BME280;45825;45.434;9.116;2023-02-21T09:30:22;100932.00;;;9.44;87.59
59971;BME280;45825;45.434;9.116;2023-02-21T09:32:48;100941.28;;;9.53;88.66
59971;BME280;45825;45.434;9.116;2023-02-21T09:35:14;100932.38;;;9.57;88.37
59971;BME280;45825;45.434;9.116;2023-02-21T09:37:42;100925.41;;;9.56;88.74
59971;BME280;45825;45.434;9.116;2023-02-21T09:42:52;100938.59;;;9.55;90.70
59971;BME280;45825;45.434;9.116;2023-02-21T09:45:19;100937.53;;;9.59;91.24
59971;BME280;45825;45.434;9.116;2023-02-21T09:47:51;100933.03;;;9.62;90.76
59971;BME280;45825;45.434;9.116;2023-02-21T09:50:26;100938.63;;;9.53;91.31
59971;BME280;45825;45.434;9.116;2023-02-21T09:52:56;100939.59;;;9.30;94.06
59971;BME280;45825;45.434;9.116;2023-02-21T09:55:30;100937.75;;;9.32;94.96
59971;BME280;45825;45.434;9.116;2023-02-21T09:57:56;100938.97;;;9.68;94.30
59971;BME280;45825;45.434;9.116;2023-02-21T10:00:26;100939.13;;;10.06;92.75
59971;BME280;45825;45.434;9.116;2023-02-21T10:03:02;100928.75;;;10.24;91.42
59971;BME280;45825;45.434;9.116;2023-02-21T10:10:44;100925.13;;;10.47;88.83
59971;BME280;45825;45.434;9.116;2023-02-21T10:21:00;100922.69;;;10.82;87.54
59971;BME280;45825;45.434;9.116;2023-02-21T10:23:39;100927.69;;;11.25;86.34
59971;BME280;45825;45.434;9.116;2023-02-21T10:26:10;100923.44;;;11.77;83.29
59971;BME280;45825;45.434;9.116;2023-02-21T10:28:37;100933.34;;;11.54;83.83
59971;BME280;45825;45.434;9.116;2023-02-21T10:31:35;100923.34;;;11.43;84.44
59971;BME280;45825;45.434;9.116;2023-02-21T10:34:04;100929.78;;;10.80;88.32
59971;BME280;45825;45.434;9.116;2023-02-21T10:36:31;100925.97;;;11.07;88.06
59971;BME280;45825;45.434;9.116;2023-02-21T10:39:19;100926.09;;;11.23;87.39
59971;BME280;45825;45.434;9.116;2023-02-21T10:41:47;100924.53;;;10.99;88.89
59971;BME280;45825;45.434;9.116;2023-02-21T10:44:34;100918.13;;;11.05;89.48
59971;BME280;45825;45.434;9.116;2023-02-21T10:47:14;100919.69;;;11.46;87.25
59971;BME280;45825;45.434;9.116;2023-02-21T10:49:58;100909.78;;;11.51;87.49
59971;BME280;45825;45.434;9.116;2023-02-21T10:52:25;100910.78;;;12.70;81.09
59971;BME280;45825;45.434;9.116;2023-02-21T10:55:09;100903.00;;;12.83;78.27
59971;BME280;45825;45.434;9.116;2023-02-21T10:57:43;100899.03;;;12.92;77.92
59971;BME280;45825;45.434;9.116;2023-02-21T11:00:25;100890.69;;;14.95;69.54
59971;BME280;45825;45.434;9.116;2023-02-21T11:02:57;100886.84;;;14.57;70.58
59971;BME280;45825;45.434;9.116;2023-02-21T11:05:27;100876.31;;;16.95;61.78
59971;BME280;45825;45.434;9.116;2023-02-21T11:08:05;100877.44;;;16.80;60.63
59971;BME280;45825;45.434;9.116;2023-02-21T11:10:33;100870.06;;;16.46;61.29
59971;BME280;45825;45.434;9.116;2023-02-21T11:13:20;100868.47;;;15.78;63.56
59971;BME280;45825;45.434;9.116;2023-02-21T11:15:46;100862.88;;;16.35;61.37
59971;BME280;45825;45.434;9.116;2023-02-21T11:20:43;100848.00;;;18.37;56.32
59971;BME280;45825;45.434;9.116;2023-02-21T11:23:20;100835.47;;;17.92;55.93
59971;BME280;45825;45.434;9.116;2023-02-21T11:25:47;100830.34;;;21.11;47.72
59971;BME280;45825;45.434;9.116;2023-02-21T11:30:39;100812.28;;;23.21;41.54
59971;BME280;45825;45.434;9.116;2023-02-21T11:33:07;100818.09;;;24.05;39.39
59971;BME280;45825;45.434;9.116;2023-02-21T11:35:47;100808.13;;;24.92;37.76
59971;BME280;45825;45.434;9.116;2023-02-21T11:38:42;100805.09;;;25.70;35.81
59971;BME280;45825;45.434;9.116;2023-02-21T11:41:21;100792.13;;;26.21;35.06
59971;BME280;45825;45.434;9.116;2023-02-21T11:43:52;100789.28;;;26.78;33.26
59971;BME280;45825;45.434;9.116;2023-02-21T11:46:31;100794.25;;;27.13;32.47
59971;BME280;45825;45.434;9.116;2023-02-21T11:51:48;100775.63;;;28.01;30.93
59971;BME280;45825;45.434;9.116;2023-02-21T11:54:24;100771.97;;;28.39;29.81
59971;BME280;45825;45.434;9.116;2023-02-21T11:57:39;100771.09;;;28.97;29.37
59971;BME280;45825;45.434;9.116;2023-02-21T12:00:42;100755.34;;;29.36;28.44
59971;BME280;45825;45.434;9.116;2023-02-21T12:06:02;100744.69;;;29.63;28.16
59971;BME280;45825;45.434;9.116;2023-02-21T12:24:27;100743.47;;;20.05;43.04
59971;BME280;45825;45.434;9.116;2023-02-21T12:27:03;100718.00;;;23.68;37.54
59971;BME280;45825;45.434;9.116;2023-02-21T12:32:46;100707.06;;;26.66;32.70
59971;BME280;45825;45.434;9.116;2023-02-21T12:35:43;100703.00;;;27.08;32.17
59971;BME280;45825;45.434;9.116;2023-02-21T12:38:42;100695.84;;;26.77;31.84
59971;BME280;45825;45.434;9.116;2023-02-21T12:44:13;100692.75;;;27.57;31.05
59971;BME280;45825;45.434;9.116;2023-02-21T12:54:40;100679.59;;;27.39;31.42
59971;BME280;45825;45.434;9.116;2023-02-21T12:57:12;100678.75;;;28.64;29.81
59971;BME280;45825;45.434;9.116;2023-02-21T13:00:03;100677.13;;;29.26;28.64
59971;BME280;45825;45.434;9.116;2023-02-21T13:05:30;100668.72;;;28.86;28.68
59971;BME280;45825;45.434;9.116;2023-02-21T13:08:01;100659.84;;;28.92;28.83
59971;BME280;45825;45.434;9.116;2023-02-21T13:10:38;100652.59;;;28.99;28.62
59971;BME280;45825;45.434;9.116;2023-02-21T13:13:11;100656.69;;;26.11;32.08
59971;BME280;45825;45.434;9.116;2023-02-21T13:15:40;100651.72;;;27.53;30.79
59971;BME280;45825;45.434;9.116;2023-02-21T13:18:10;100647.44;;;27.44;31.03
59971;BME280;45825;45.434;9.116;2023-02-21T13:27:35;100631.16;;;29.95;27.15
59971;BME280;45825;45.434;9.116;2023-02-21T13:30:13;100629.28;;;29.96;27.54
59971;BME280;45825;45.434;9.116;2023-02-21T13:32:52;100631.22;;;30.22;26.88
59971;BME280;45825;45.434;9.116;2023-02-21T13:35:25;100619.72;;;29.45;27.79
59971;BME280;45825;45.434;9.116;2023-02-21T13:37:53;100626.88;;;27.95;29.23
59971;BME280;45825;45.434;9.116;2023-02-21T13:40:41;100622.47;;;27.27;30.44
59971;BME280;45825;45.434;9.116;2023-02-21T13:43:27;100612.31;;;26.22;31.93
59971;BME280;45825;45.434;9.116;2023-02-21T13:45:54;100620.38;;;23.43;36.96
59971;BME280;45825;45.434;9.116;2023-02-21T13:48:39;100608.03;;;27.50;31.09
59971;BME280;45825;45.434;9.116;2023-02-21T13:51:05;100597.50;;;29.21;28.69
59971;BME280;45825;45.434;9.116;2023-02-21T13:53:32;100605.81;;;29.54;27.92
59971;BME280;45825;45.434;9.116;2023-02-21T13:56:16;100597.97;;;28.89;28.49
59971;BME280;45825;45.434;9.116;2023-02-21T13:58:44;100601.25;;;27.39;29.81
59971;BME280;45825;45.434;9.116;2023-02-21T14:03:41;100594.84;;;27.10;30.95
59971;BME280;45825;45.434;9.116;2023-02-21T14:13:36;100587.56;;;27.25;30.77
59971;BME280;45825;45.434;9.116;2023-02-21T14:21:05;100582.44;;;27.00;30.82
59971;BME280;45825;45.434;9.116;2023-02-21T14:23:45;100588.19;;;26.82;30.86
59971;BME280;45825;45.434;9.116;2023-02-21T14:29:08;100588.66;;;23.12;37.10
59971;BME280;45825;45.434;9.116;2023-02-21T14:31:50;100582.09;;;22.35;38.91
59971;BME280;45825;45.434;9.116;2023-02-21T14:34:24;100580.03;;;23.86;36.48
59971;BME280;45825;45.434;9.116;2023-02-21T14:36:52;100588.75;;;23.28;37.11
59971;BME280;45825;45.434;9.116;2023-02-21T14:39:19;100587.56;;;20.65;42.14
59971;BME280;45825;45.434;9.116;2023-02-21T14:42:16;100584.06;;;20.35;43.88
59971;BME280;45825;45.434;9.116;2023-02-21T14:45:14;100584.28;;;19.83;45.17
59971;BME280;45825;45.434;9.116;2023-02-21T14:47:52;100588.84;;;19.10;47.24
59971;BME280;45825;45.434;9.116;2023-02-21T14:50:49;100590.22;;;18.29;50.10
59971;BME280;45825;45.434;9.116;2023-02-21T14:58:47;100588.38;;;17.19;54.04
59971;BME280;45825;45.434;9.116;2023-02-21T15:03:47;100582.59;;;16.78;56.25
59971;BME280;45825;45.434;9.116;2023-02-21T15:06:19;100588.28;;;16.85;55.83
59971;BME280;45825;45.434;9.116;2023-02-21T15:08:49;100584.44;;;16.89;56.02
59971;BME280;45825;45.434;9.116;2023-02-21T15:11:24;100579.72;;;16.81;56.16
59971;BME280;45825;45.434;9.116;2023-02-21T15:16:59;100589.75;;;16.78;56.71